Arlington, MA (02474)

6:18 PM EDT on July 28, 2016 (GMT -0400)
Morningside / Turkey Hill | | Change Station

Elev 259 ft 42.43 °N, 71.17 °W | Updated 6 minutes ago

Clear
Clear
90.7 °F
Feels Like 91 °F
N
1.7
Wind Variable Wind from WSW

Today
High -- | Low -- °F
--% Chance of Precip.
Yesterday
High -- | Low -- °F
Precip. -- in
Pressure 29.85 in
Visibility 10.0 miles
Clouds Clear
Heat Index 91 °F
Dew Point 62 °F
Humidity 39%
Rainfall 0.00 in
Snow Depth Not available.
5:33 AM 8:08 PM
Waning Crescent, 28% visible
METAR KBED 282156Z 24007KT 10SM CLR 33/14 A2981 RMK AO2 SLP106 T03280139
Pressure 29.85 in
Visibility 10.0 miles
Clouds Clear
Heat Index 91 °F
Dew Point 62 °F
Humidity 39%
Rainfall 0.00 in
Snow Depth Not available.
5:33 AM 8:08 PM
Waning Crescent, 28% visible
METAR KBED 282156Z 24007KT 10SM CLR 33/14 A2981 RMK AO2 SLP106 T03280139

10-Day Weather Forecast

Almanac

Astronomy

Jul. 28, 2016 Rise Set
Actual Time
Civil Twilight
Nautical Twilight
Astronomical Twilight
Moon
Length of Visible Light
Length of Day
Tomorrow will be .
, % of the Moon is Illuminated

Today's Extremes

State Highs State Lows

Community

WunderPhotos

Upload Photos

1,928,219 photos uploaded!

WunderBlog® & News

Nearby

Air Quality

  Air Quality AQ Index Pollutant
Not available.

Snow Depth

Station Depth Elevation

Earthquake Activity

City Distance Mag. Time & Date
Minimum magnitude displayed is 2.5.

Coastal Water Temperatures

Place Temperature

Stations

Nearby Weather Stations

Station Location Temp. Windchill Dew Point Humidity Wind Precip. Elev Updated Type
                   

Watches & Warnings

There are currently no watches in effect.